createdAt,value
2023-11-11T00:01:23.479Z,100045.16
2023-11-11T00:06:27.001Z,100047.91
2023-11-11T00:11:30.335Z,100064.47
2023-11-11T00:16:34.842Z,100075.66
2023-11-11T00:21:40.013Z,100073.16
2023-11-11T00:26:45.914Z,100089.69
2023-11-11T00:31:50.624Z,100090.50
2023-11-11T00:36:53.957Z,100078.09
2023-11-11T00:41:57.162Z,100086.06
2023-11-11T00:47:01.862Z,100093.22
2023-11-11T00:52:05.440Z,100105.59
2023-11-11T00:57:08.605Z,100121.34
2023-11-11T01:02:13.012Z,100119.72
2023-11-11T01:07:16.073Z,100121.13
2023-11-11T01:12:20.592Z,100126.16
2023-11-11T01:17:25.462Z,100134.75
2023-11-11T01:22:28.632Z,100148.84
2023-11-11T01:27:33.153Z,100145.56
2023-11-11T01:32:37.947Z,100154.44
2023-11-11T01:37:41.117Z,100164.81
2023-11-11T01:42:44.159Z,100170.22
2023-11-11T01:47:49.756Z,100170.16
2023-11-11T01:52:54.691Z,100169.13
2023-11-11T01:57:59.257Z,100168.13
2023-11-11T02:03:03.747Z,100148.06
2023-11-11T02:08:09.333Z,100140.59
2023-11-11T02:13:12.690Z,100152.56
2023-11-11T02:18:17.191Z,100158.09
2023-11-11T02:23:20.524Z,100167.03
2023-11-11T02:28:24.886Z,100173.09
2023-11-11T02:33:28.236Z,100162.66
2023-11-11T02:38:31.428Z,100198.31
2023-11-11T02:43:36.064Z,100212.63
2023-11-11T02:48:39.206Z,100206.28
2023-11-11T02:53:42.379Z,100213.41
2023-11-11T02:58:46.798Z,100217.50
2023-11-11T03:03:51.069Z,100224.22
2023-11-11T03:08:55.031Z,100242.22
2023-11-11T03:14:02.120Z,100253.34
2023-11-11T03:19:05.620Z,100225.88
2023-11-11T03:24:10.155Z,100226.94
2023-11-11T03:29:14.612Z,100223.56
2023-11-11T03:34:17.817Z,100232.47
2023-11-11T03:39:20.816Z,100230.94
2023-11-11T03:44:25.253Z,100238.22
2023-11-11T03:49:28.426Z,100243.72
2023-11-11T03:54:31.550Z,100251.78
2023-11-11T03:59:36.570Z,100256.28
2023-11-11T04:04:41.125Z,100257.22
2023-11-11T04:09:45.324Z,100261.53
2023-11-11T04:14:50.149Z,100265.88
2023-11-11T04:19:54.073Z,100281.59
2023-11-11T04:24:57.363Z,100280.25
2023-11-11T04:30:01.757Z,100277.09
2023-11-11T04:35:05.319Z,100281.56
2023-11-11T04:40:15.933Z,100293.38
2023-11-11T04:45:21.011Z,100294.16
2023-11-11T04:50:24.269Z,100301.78
2023-11-11T04:55:27.293Z,100293.81
2023-11-11T05:00:31.790Z,100297.16
2023-11-11T05:05:35.534Z,100298.81
2023-11-11T05:10:38.699Z,100304.03
2023-11-11T05:15:47.139Z,100307.66
2023-11-11T05:20:51.985Z,100314.72
2023-11-11T05:25:55.630Z,100326.47
2023-11-11T05:31:00.776Z,100338.56
2023-11-11T05:36:03.930Z,100341.59
2023-11-11T05:41:06.960Z,100346.16
2023-11-11T05:46:11.926Z,100347.47
2023-11-11T05:51:15.542Z,100349.66
2023-11-11T05:56:20.800Z,100343.84
2023-11-11T06:01:25.216Z,100366.50
2023-11-11T06:06:28.395Z,100389.38
2023-11-11T06:11:31.647Z,100391.22
2023-11-11T06:16:36.568Z,100387.88
2023-11-11T06:21:39.656Z,100396.03
2023-11-11T06:26:42.934Z,100395.34
2023-11-11T06:31:47.328Z,100397.25
2023-11-11T06:36:50.324Z,100406.03
2023-11-11T06:41:53.489Z,100402.34
2023-11-11T06:46:57.868Z,100420.09
2023-11-11T06:52:00.990Z,100391.22
2023-11-11T06:57:06.699Z,100397.88
2023-11-11T07:02:14.150Z,100393.31
2023-11-11T07:07:17.352Z,100394.16
2023-11-11T07:12:22.432Z,100395.13
2023-11-11T07:17:27.293Z,100408.94
2023-11-11T07:22:32.860Z,100403.75
2023-11-11T07:27:36.014Z,100406.38
2023-11-11T07:32:53.060Z,100414.34
2023-11-11T07:38:05.230Z,100421.31
2023-11-11T07:43:08.881Z,100429.25
2023-11-11T07:48:13.649Z,100440.81
2023-11-11T07:53:21.493Z,100447.59
2023-11-11T08:03:33.818Z,100467.38
2023-11-11T08:08:36.992Z,100472.66
2023-11-11T08:13:40.703Z,100483.41
2023-11-11T08:18:48.334Z,100479.13
2023-11-11T08:23:51.940Z,100465.75
2023-11-11T08:28:55.360Z,100480.38
2023-11-11T08:34:00.862Z,100476.34
2023-11-11T08:39:04.595Z,100481.72
2023-11-11T08:44:07.743Z,100489.66
2023-11-11T08:49:13.298Z,100497.91
2023-11-11T08:54:16.974Z,100496.38
2023-11-11T08:59:21.822Z,100484.25
2023-11-11T09:04:26.313Z,100483.81
2023-11-11T09:09:30.116Z,100491.03
2023-11-11T09:14:35.121Z,100488.53
2023-11-11T09:19:39.549Z,100504.59
2023-11-11T09:24:42.839Z,100502.22
2023-11-11T09:29:46.041Z,100506.31
2023-11-11T09:34:50.565Z,100509.41
2023-11-11T09:39:53.985Z,100505.53
2023-11-11T09:50:04.446Z,100509.59
2023-11-11T09:55:09.952Z,100522.44
2023-11-11T10:00:15.226Z,100532.63
2023-11-11T10:05:19.853Z,100509.03
2023-11-11T10:10:23.605Z,100512.59
2023-11-11T10:15:26.998Z,100517.59
2023-11-11T10:20:31.711Z,100526.25
2023-11-11T10:25:34.835Z,100528.88
2023-11-11T10:30:38.578Z,100518.94
2023-11-11T10:35:43.054Z,100522.25
2023-11-11T10:40:46.267Z,100527.28
2023-11-11T10:45:50.033Z,100522.63
2023-11-11T10:50:55.424Z,100524.53
2023-11-11T10:55:59.677Z,100531.56
2023-11-11T11:01:03.476Z,100539.63
2023-11-11T11:06:15.071Z,100539.69
2023-11-11T11:11:27.775Z,100535.38
2023-11-11T11:16:32.035Z,100531.91
2023-11-11T11:21:37.260Z,100531.31
2023-11-11T11:46:50.838Z,100538.25
2023-11-11T11:51:54.046Z,100549.44
2023-11-11T11:57:05.808Z,100552.03
2023-11-11T12:02:13.087Z,100548.69
2023-11-11T12:07:18.408Z,100543.75
2023-11-11T12:12:22.085Z,100534.75
2023-11-11T12:17:27.224Z,100541.59
2023-11-11T12:22:31.115Z,100537.38
2023-11-11T12:27:34.355Z,100547.28
2023-11-11T12:32:38.850Z,100541.47
2023-11-11T12:37:42.213Z,100542.94
2023-11-11T12:42:46.519Z,100551.16
2023-11-11T12:47:54.550Z,100545.25
2023-11-11T12:53:06.032Z,100545.25
2023-11-11T12:58:21.892Z,100551.31
2023-11-11T13:03:28.309Z,100553.28
2023-11-11T13:08:31.727Z,100545.28
2023-11-11T13:13:35.116Z,100548.34
2023-11-11T13:18:39.727Z,100562.09
2023-11-11T13:23:42.809Z,100556.97
2023-11-11T13:28:48.779Z,100570.06
2023-11-11T13:33:53.963Z,100560.25
2023-11-11T13:38:59.762Z,100567.75
2023-11-11T13:44:03.196Z,100575.50
2023-11-11T13:49:08.874Z,100571.13
2023-11-11T13:54:12.215Z,100574.69
2023-11-11T13:59:15.289Z,100580.06
2023-11-11T14:04:19.808Z,100577.41
2023-11-11T14:09:23.701Z,100586.63
2023-11-11T14:14:26.793Z,100578.19
2023-11-11T14:19:31.497Z,100591.31
2023-11-11T14:24:34.679Z,100589.16
2023-11-11T14:29:37.909Z,100611.81
2023-11-11T14:34:43.074Z,100610.53
2023-11-11T14:39:46.829Z,100612.44
2023-11-11T14:44:49.960Z,100617.19
2023-11-11T14:49:54.522Z,100624.19
2023-11-11T14:54:57.599Z,100627.72
2023-11-11T15:00:00.689Z,100632.63
2023-11-11T15:05:10.231Z,100629.38
2023-11-11T15:10:18.562Z,100638.34
2023-11-11T15:15:22.343Z,100626.22
2023-11-11T15:20:26.891Z,100641.91
2023-11-11T15:25:30.977Z,100638.06
2023-11-11T15:30:34.903Z,100641.78
2023-11-11T15:35:39.360Z,100640.72
2023-11-11T15:40:43.244Z,100649.69
2023-11-11T15:45:46.337Z,100656.03
2023-11-11T15:50:50.766Z,100662.50
2023-11-11T15:55:53.912Z,100661.00
2023-11-11T16:00:57.159Z,100665.75
2023-11-11T16:06:02.027Z,100666.16
2023-11-11T16:11:05.609Z,100671.78
2023-11-11T16:16:08.854Z,100685.47
2023-11-11T16:21:21.237Z,100686.75
2023-11-11T16:26:24.583Z,100682.72
2023-11-11T16:31:29.344Z,100682.31
2023-11-11T16:36:34.151Z,100676.59
2023-11-11T16:41:37.148Z,100687.56
2023-11-11T16:46:40.083Z,100687.97
2023-11-11T16:51:45.485Z,100704.13
2023-11-11T16:56:48.487Z,100701.13
2023-11-11T17:01:51.698Z,100700.03
2023-11-11T17:06:56.603Z,100702.38
2023-11-11T17:12:00.346Z,100703.09
2023-11-11T17:17:06.327Z,100698.53
2023-11-11T17:22:10.722Z,100697.72
2023-11-11T17:27:14.589Z,100698.06
2023-11-11T17:32:17.588Z,100700.03
2023-11-11T17:37:21.942Z,100701.88
2023-11-11T17:42:24.807Z,100702.97
2023-11-11T17:47:27.865Z,100697.88
2023-11-11T17:52:32.448Z,100693.53
2023-11-11T17:57:36.503Z,100695.34
2023-11-11T18:02:40.153Z,100697.06
2023-11-11T18:07:45.097Z,100704.78
2023-11-11T18:12:50.485Z,100685.41
2023-11-11T18:17:53.613Z,100696.34
2023-11-11T18:22:58.509Z,100682.03
2023-11-11T18:28:01.546Z,100683.47
2023-11-11T18:33:04.796Z,100691.81
2023-11-11T18:38:09.567Z,100698.56
2023-11-11T18:43:14.467Z,100709.59
2023-11-11T18:48:17.507Z,100713.69
2023-11-11T18:53:22.149Z,100710.00
2023-11-11T18:58:25.204Z,100714.41
2023-11-11T19:03:30.497Z,100710.28
2023-11-11T19:08:35.405Z,100712.06
2023-11-11T19:13:38.464Z,100710.28
2023-11-11T19:18:41.622Z,100709.31
2023-11-11T19:23:46.050Z,100707.47
2023-11-11T19:28:49.230Z,100717.00
2023-11-11T19:33:52.751Z,100718.78
2023-11-11T19:38:57.944Z,100719.78
2023-11-11T19:44:00.952Z,100718.06
2023-11-11T19:49:06.124Z,100708.41
2023-11-11T19:54:13.436Z,100700.84
2023-11-11T19:59:16.692Z,100702.84
2023-11-11T20:04:20.450Z,100695.06
2023-11-11T20:09:25.157Z,100695.06
2023-11-11T20:14:28.160Z,100704.69
2023-11-11T20:19:31.401Z,100692.53
2023-11-11T20:24:37.317Z,100690.03
2023-11-11T20:29:40.404Z,100690.91
2023-11-11T20:34:43.460Z,100672.75
2023-11-11T20:39:48.119Z,100673.69
2023-11-11T20:44:51.173Z,100675.44
2023-11-11T20:49:54.374Z,100666.72
2023-11-11T20:55:01.632Z,100686.91
2023-11-11T21:00:07.171Z,100679.16
2023-11-11T21:05:15.550Z,100681.91
2023-11-11T21:10:20.062Z,100683.63
2023-11-11T21:15:23.705Z,100682.72
2023-11-11T21:20:27.181Z,100678.44
2023-11-11T21:25:31.706Z,100693.34
2023-11-11T21:30:35.147Z,100682.59
2023-11-11T21:35:38.187Z,100679.16
2023-11-11T21:40:45.351Z,100679.16
2023-11-11T21:45:49.674Z,100671.22
2023-11-11T21:50:52.761Z,100670.47
2023-11-11T21:55:57.263Z,100668.97
2023-11-11T22:01:00.628Z,100662.88
2023-11-11T22:06:03.949Z,100655.03
2023-11-11T22:11:11.685Z,100652.50
2023-11-11T22:16:15.052Z,100652.50
2023-11-11T22:21:21.778Z,100654.09
2023-11-11T22:26:29.804Z,100651.44
2023-11-11T22:31:32.892Z,100645.34
2023-11-11T22:36:38.375Z,100653.19
2023-11-11T22:41:44.256Z,100636.34
2023-11-11T22:46:47.473Z,100652.28
2023-11-11T22:51:53.991Z,100647.78
2023-11-11T22:56:58.673Z,100642.53
2023-11-11T23:02:01.910Z,100646.06
2023-11-11T23:07:05.138Z,100637.31
2023-11-11T23:12:10.247Z,100628.63
2023-11-11T23:17:16.606Z,100623.34
2023-11-11T23:22:20.222Z,100624.84
2023-11-11T23:27:25.666Z,100619.50
2023-11-11T23:32:29.024Z,100602.50
2023-11-11T23:37:32.371Z,100617.50
2023-11-11T23:42:38.393Z,100611.84
2023-11-11T23:47:43.255Z,100605.41
2023-11-11T23:52:46.378Z,100605.97
2023-11-11T23:57:52.129Z,100601.97
